Ty Woods — WDB5332 — position and weather

sailwx.info

Track history (hours):
 
Tides and Currents Weather Stations Pressure Air Temp Water Temp Dewpoint Dewpoint Depression Visibility Wind Speed Wind Dir Waves Ship Positions

Ty Woods

Owner: San Diego Towing & Marine Services,Inc., San Diego, CA. More information available from US FCC via Universal Licensing System and Coast Guard Vessel Documentation Center.

Last reported at 2017-Sep-14 19:10 UTC. Time now 2017-Sep-23 16:22 UTC.
Position N 33°46' W 118°13'.
Warning: this ship's position is 8 days out of date.

; draft 2 m.

Type: Ship. MMSI: 366908460.

Date/timePositionNaut miles runAvg speedWind from/ knotsBaromVisibWave heightAir tempDewpointWater temp
2017-Sep-14 19:10N 33°46' W 118°13'0 0.0
2017-Sep-14 19:00N 33°46' W 118°13'2 3.5
2017-Sep-14 18:30N 33°46' W 118°15'2 3.9
2017-Sep-14 18:00N 33°45' W 118°17'2 3.3
2017-Sep-14 17:30N 33°43' W 118°16'3 5.5
2017-Sep-14 17:00N 33°44' W 118°13'1 2.3
2017-Sep-14 16:30N 33°45' W 118°13'1 1.7
2017-Sep-14 15:59N 33°46' W 118°13'0 0.0
2017-Sep-13 18:43N 33°46' W 118°13'0 2.3
2017-Sep-13 18:30N 33°46' W 118°13'510.9
2017-Sep-13 18:00N 33°41' W 118°10'610.9
2017-Sep-13 17:29N 33°36' W 118°09'6 9.5
2017-Sep-13 16:48N 33°42' W 118°11'412.5
2017-Sep-13 16:30N 33°45' W 118°13'1 2.6
2017-Sep-13 16:00N 33°46' W 118°13'  
2017-Sep-07 03:34N 33°46' W 118°13'0 0.0
2017-Sep-07 03:30N 33°46' W 118°13'0 0.0
2017-Sep-07 03:00N 33°46' W 118°13'3 5.6
2017-Sep-07 02:30N 33°44' W 118°11'815.4
2017-Sep-07 02:00N 33°36' W 118°11'816.5
2017-Sep-07 01:30N 33°28' W 118°12'816.5
2017-Sep-07 01:00N 33°20' W 118°14'816.2
2017-Sep-07 00:30N 33°12' W 118°15'816.2
2017-Sep-07 00:00N 33°04' W 118°16'816.4
2017-Sep-06 23:30N 32°56' W 118°18'816.1
2017-Sep-06 23:00N 32°48' W 118°19'815.6
2017-Sep-06 22:30N 32°40' W 118°21'815.5
2017-Sep-06 22:01N 32°33' W 118°25'916.1
2017-Sep-06 21:29N 32°27' W 118°32'816.7
2017-Sep-06 21:00N 32°22' W 118°39'1016.0
2017-Sep-06 20:22N 32°15' W 118°48'616.0
2017-Sep-06 20:00N 32°11' W 118°54'1616.1
2017-Sep-06 19:03N 32°02' W 119°08'115.7
2017-Sep-06 19:00N 32°02' W 119°09'1610.8
2017-Sep-06 17:29N 31°48' W 119°19'1 2.7
2017-Sep-06 17:00N 31°48' W 119°18'3 6.4
2017-Sep-06 16:29N 31°50' W 119°20'2 3.6
2017-Sep-06 15:57N 31°50' W 119°18'3 6.4
2017-Sep-06 15:30N 31°51' W 119°21'1 2.6
2017-Sep-06 15:00N 31°51' W 119°20'2 3.6
2017-Sep-06 14:30N 31°51' W 119°22'8 1.5
2017-Sep-06 09:14N 31°58' W 119°27'0 1.3
2017-Sep-06 08:57N 31°58' W 119°27'1 1.3
2017-Sep-06 08:04N 31°59' W 119°28'0 1.4
2017-Sep-06 07:59N 31°59' W 119°28'1 1.2
2017-Sep-06 07:30N 31°60' W 119°29'1 1.2
2017-Sep-06 07:00N 32°00' W 119°29'1 1.4
2017-Sep-06 06:30N 32°01' W 119°29'1 1.4
2017-Sep-06 06:00N 32°02' W 119°28'0 1.0
2017-Sep-06 05:30N 32°02' W 119°29'0 0.7
2017-Sep-06 05:00N 32°02' W 119°29'0 0.8
2017-Sep-06 04:30N 32°03' W 119°29'0 0.7
2017-Sep-06 04:00N 32°03' W 119°30'1 0.9
2017-Sep-06 03:11N 32°03' W 119°30'0 1.3
2017-Sep-06 02:59N 32°03' W 119°30'3 6.4
2017-Sep-06 02:29N 32°06' W 119°29'817.2
2017-Sep-06 02:00N 32°14' W 119°25'917.1
2017-Sep-06 01:30N 32°22' W 119°23'816.9
2017-Sep-06 01:00N 32°31' W 119°21'2616.6
2017-Sep-05 23:25N 32°55' W 119°11'716.7
2017-Sep-05 23:00N 33°01' W 119°06'1016.8
2017-Sep-05 22:24N 33°09' W 118°58'2916.5
2017-Sep-05 20:39N 33°31' W 118°36'1016.1
2017-Sep-05 20:03N 33°36' W 118°26'116.3
2017-Sep-05 20:00N 33°36' W 118°25'816.2
2017-Sep-05 19:30N 33°40' W 118°17'611.3
2017-Sep-05 19:00N 33°44' W 118°12'2 4.7
2017-Sep-05 18:30N 33°46' W 118°13'0 0.0
2017-Sep-05 18:00N 33°46' W 118°13'0 0.0
2017-Sep-05 17:30N 33°46' W 118°13'0 0.0
2017-Sep-05 17:00N 33°46' W 118°13'0 0.0
2017-Sep-05 16:30N 33°46' W 118°13'  
Track history (hours):
 
Tides and Currents Weather Stations Pressure Air Temp Water Temp Dewpoint Dewpoint Depression Visibility Wind Speed Wind Dir Waves Ship Positions

Ty Woods

Owner: San Diego Towing & Marine Services,Inc., San Diego, CA. More information available from US FCC via Universal Licensing System and Coast Guard Vessel Documentation Center.

Last reported at 2017-Sep-14 19:10 UTC. Time now 2017-Sep-23 16:22 UTC.
Position N 33°46' W 118°13'.
Warning: this ship's position is 8 days out of date.

; draft 2 m.

Type: Ship. MMSI: 366908460.

Date/timePositionNaut miles runAvg speedWind from/ knotsBaromVisibWave heightAir tempDewpointWater temp
2017-Sep-14 19:10N 33°46' W 118°13'0 0.0
2017-Sep-14 19:00N 33°46' W 118°13'2 3.5
2017-Sep-14 18:30N 33°46' W 118°15'2 3.9
2017-Sep-14 18:00N 33°45' W 118°17'2 3.3
2017-Sep-14 17:30N 33°43' W 118°16'3 5.5
2017-Sep-14 17:00N 33°44' W 118°13'1 2.3
2017-Sep-14 16:30N 33°45' W 118°13'1 1.7
2017-Sep-14 15:59N 33°46' W 118°13'0 0.0
2017-Sep-13 18:43N 33°46' W 118°13'0 2.3
2017-Sep-13 18:30N 33°46' W 118°13'510.9
2017-Sep-13 18:00N 33°41' W 118°10'610.9
2017-Sep-13 17:29N 33°36' W 118°09'6 9.5
2017-Sep-13 16:48N 33°42' W 118°11'412.5
2017-Sep-13 16:30N 33°45' W 118°13'1 2.6
2017-Sep-13 16:00N 33°46' W 118°13'  
2017-Sep-07 03:34N 33°46' W 118°13'0 0.0
2017-Sep-07 03:30N 33°46' W 118°13'0 0.0
2017-Sep-07 03:00N 33°46' W 118°13'3 5.6
2017-Sep-07 02:30N 33°44' W 118°11'815.4
2017-Sep-07 02:00N 33°36' W 118°11'816.5
2017-Sep-07 01:30N 33°28' W 118°12'816.5
2017-Sep-07 01:00N 33°20' W 118°14'816.2
2017-Sep-07 00:30N 33°12' W 118°15'816.2
2017-Sep-07 00:00N 33°04' W 118°16'816.4
2017-Sep-06 23:30N 32°56' W 118°18'816.1
2017-Sep-06 23:00N 32°48' W 118°19'815.6
2017-Sep-06 22:30N 32°40' W 118°21'815.5
2017-Sep-06 22:01N 32°33' W 118°25'916.1
2017-Sep-06 21:29N 32°27' W 118°32'816.7
2017-Sep-06 21:00N 32°22' W 118°39'1016.0
2017-Sep-06 20:22N 32°15' W 118°48'616.0
2017-Sep-06 20:00N 32°11' W 118°54'1616.1
2017-Sep-06 19:03N 32°02' W 119°08'115.7
2017-Sep-06 19:00N 32°02' W 119°09'1610.8
2017-Sep-06 17:29N 31°48' W 119°19'1 2.7
2017-Sep-06 17:00N 31°48' W 119°18'3 6.4
2017-Sep-06 16:29N 31°50' W 119°20'2 3.6
2017-Sep-06 15:57N 31°50' W 119°18'3 6.4
2017-Sep-06 15:30N 31°51' W 119°21'1 2.6
2017-Sep-06 15:00N 31°51' W 119°20'2 3.6
2017-Sep-06 14:30N 31°51' W 119°22'8 1.5
2017-Sep-06 09:14N 31°58' W 119°27'0 1.3
2017-Sep-06 08:57N 31°58' W 119°27'1 1.3
2017-Sep-06 08:04N 31°59' W 119°28'0 1.4
2017-Sep-06 07:59N 31°59' W 119°28'1 1.2
2017-Sep-06 07:30N 31°60' W 119°29'1 1.2
2017-Sep-06 07:00N 32°00' W 119°29'1 1.4
2017-Sep-06 06:30N 32°01' W 119°29'1 1.4
2017-Sep-06 06:00N 32°02' W 119°28'0 1.0
2017-Sep-06 05:30N 32°02' W 119°29'0 0.7
2017-Sep-06 05:00N 32°02' W 119°29'0 0.8
2017-Sep-06 04:30N 32°03' W 119°29'0 0.7
2017-Sep-06 04:00N 32°03' W 119°30'1 0.9
2017-Sep-06 03:11N 32°03' W 119°30'0 1.3
2017-Sep-06 02:59N 32°03' W 119°30'3 6.4
2017-Sep-06 02:29N 32°06' W 119°29'817.2
2017-Sep-06 02:00N 32°14' W 119°25'917.1
2017-Sep-06 01:30N 32°22' W 119°23'816.9
2017-Sep-06 01:00N 32°31' W 119°21'2616.6
2017-Sep-05 23:25N 32°55' W 119°11'716.7
2017-Sep-05 23:00N 33°01' W 119°06'1016.8
2017-Sep-05 22:24N 33°09' W 118°58'2916.5
2017-Sep-05 20:39N 33°31' W 118°36'1016.1
2017-Sep-05 20:03N 33°36' W 118°26'116.3
2017-Sep-05 20:00N 33°36' W 118°25'816.2
2017-Sep-05 19:30N 33°40' W 118°17'611.3
2017-Sep-05 19:00N 33°44' W 118°12'2 4.7
2017-Sep-05 18:30N 33°46' W 118°13'0 0.0
2017-Sep-05 18:00N 33°46' W 118°13'0 0.0
2017-Sep-05 17:30N 33°46' W 118°13'0 0.0
2017-Sep-05 17:00N 33°46' W 118°13'0 0.0
2017-Sep-05 16:30N 33°46' W 118°13'  

Dump ship's entire track history